VTVSD TJSJ-TFFJ
Flight info
| Callsign | VTVSD |
|---|---|
| Flight time | N/A |
| Altitude | 27000 |
| Route | SJU RTE2 COY/N0295F170 R760 PJM |
| Aircraft | TBM9/L-SDFGRWY/S |
Departure
| Time | 2026-05-05 16:43 |
|---|---|
| Airport | Luis Munoz Marin International Airport (TJSJ) |
Arrival
| Time | N/A |
|---|---|
| Airport | St. Jean Airport (TFFJ) |
| Time | Latitude | Longitude | Altitude | Speed | Heading |
|---|---|---|---|---|---|
| 2026-05-05 15:56 | 18.44147 | -65.99698 | 12 ft | 0 kts | 249° |
| 2026-05-05 16:38 | 18.44144 | -65.99707 | 12 ft | 2 kts | 251° |
| 2026-05-05 16:38 | 18.44162 | -65.99720 | 12 ft | 5 kts | 337° |
| 2026-05-05 16:39 | 18.44205 | -65.99740 | 12 ft | 7 kts | 344° |
| 2026-05-05 16:39 | 18.44217 | -65.99744 | 12 ft | 9 kts | 339° |
| 2026-05-05 16:39 | 18.44246 | -65.99759 | 12 ft | 0 kts | 331° |
| 2026-05-05 16:39 | 18.44273 | -65.99792 | 12 ft | 4 kts | 293° |
| 2026-05-05 16:40 | 18.44288 | -65.99831 | 12 ft | 7 kts | 291° |
| 2026-05-05 16:40 | 18.44291 | -65.99890 | 12 ft | 8 kts | 256° |
| 2026-05-05 16:40 | 18.44332 | -65.99920 | 12 ft | 8 kts | 338° |
| 2026-05-05 16:40 | 18.44374 | -65.99965 | 12 ft | 11 kts | 257° |
| 2026-05-05 16:41 | 18.44334 | -66.00060 | 12 ft | 22 kts | 244° |
| 2026-05-05 16:41 | 18.44237 | -66.00259 | 12 ft | 39 kts | 222° |
| 2026-05-05 16:41 | 18.44136 | -66.00500 | 12 ft | 22 kts | 259° |
| 2026-05-05 16:41 | 18.44052 | -66.00612 | 12 ft | 27 kts | 239° |
| 2026-05-05 16:42 | 18.43958 | -66.00855 | 12 ft | 44 kts | 254° |
| 2026-05-05 16:42 | 18.43863 | -66.01036 | 12 ft | 22 kts | 261° |
| 2026-05-05 16:42 | 18.43827 | -66.01203 | 12 ft | 25 kts | 245° |
| 2026-05-05 16:42 | 18.43830 | -66.01361 | 12 ft | 22 kts | 338° |
| 2026-05-05 16:43 | 18.43932 | -66.01345 | 12 ft | 20 kts | 70° |
| 2026-05-05 16:43 | 18.44069 | -66.00992 | 12 ft | 85 kts | 74° |
| 2026-05-05 16:43 | 18.44403 | -66.00292 | 240 ft | 121 kts | 65° |
| 2026-05-05 16:43 | 18.44830 | -65.99483 | 790 ft | 134 kts | 68° |
| 2026-05-05 16:44 | 18.45405 | -65.98671 | 1274 ft | 161 kts | 26° |
| 2026-05-05 16:44 | 18.45990 | -65.99288 | 778 ft | 216 kts | 219° |
| 2026-05-05 16:44 | 18.45329 | -66.00446 | 1239 ft | 167 kts | 262° |
| 2026-05-05 16:44 | 18.45378 | -66.01578 | 1261 ft | 142 kts | 275° |
| 2026-05-05 16:45 | 18.45497 | -66.02415 | 1285 ft | 95 kts | 260° |
| 2026-05-05 16:45 | 18.45176 | -66.02979 | 1149 ft | 99 kts | 230° |
| 2026-05-05 16:45 | 18.44714 | -66.03444 | 977 ft | 92 kts | 175° |
| 2026-05-05 16:45 | 18.44195 | -66.03198 | 883 ft | 82 kts | 143° |
| 2026-05-05 16:46 | 18.43794 | -66.02771 | 675 ft | 89 kts | 129° |
| 2026-05-05 16:46 | 18.43630 | -66.02188 | 306 ft | 78 kts | 84° |
| 2026-05-05 16:46 | 18.43816 | -66.01657 | 104 ft | 87 kts | 74° |
| 2026-05-05 16:46 | 18.44051 | -66.01079 | 12 ft | 73 kts | 73° |
| 2026-05-05 16:47 | 18.44158 | -66.00672 | 12 ft | 43 kts | 73° |
| 2026-05-05 16:47 | 18.44088 | -66.00635 | 12 ft | 17 kts | 255° |
| 2026-05-05 16:47 | 18.44082 | -66.00654 | 12 ft | 0 kts | 248° |
| 2026-05-05 16:47 | 18.44060 | -66.00706 | 12 ft | 15 kts | 253° |
| 2026-05-05 16:48 | 18.44015 | -66.00811 | 12 ft | 16 kts | 246° |
| 2026-05-05 16:48 | 18.43967 | -66.00919 | 12 ft | 17 kts | 228° |
| 2026-05-05 16:48 | 18.43946 | -66.00977 | 12 ft | 0 kts | 255° |
| 2026-05-05 16:48 | 18.43945 | -66.00984 | 12 ft | 5 kts | 252° |
| 2026-05-05 16:49 | 18.43924 | -66.01039 | 12 ft | 0 kts | 255° |
| 2026-05-05 16:49 | 18.43909 | -66.01079 | 12 ft | 7 kts | 246° |
| 2026-05-05 16:49 | 18.43880 | -66.01138 | 12 ft | 10 kts | 248° |
| 2026-05-05 16:49 | 18.43851 | -66.01216 | 12 ft | 13 kts | 245° |
| 2026-05-05 16:50 | 18.43808 | -66.01304 | 12 ft | 14 kts | 241° |
| 2026-05-05 16:50 | 18.43826 | -66.01359 | 12 ft | 8 kts | 338° |
| 2026-05-05 16:50 | 18.43833 | -66.01362 | 12 ft | 0 kts | 340° |
| 2026-05-05 16:52 | 18.43879 | -66.01381 | 12 ft | 14 kts | 338° |
| 2026-05-05 16:52 | 18.43937 | -66.01330 | 12 ft | 2 kts | 70° |
| 2026-05-05 16:53 | 18.43947 | -66.01331 | 12 ft | 6 kts | 281° |
| 2026-05-05 16:53 | 18.43937 | -66.01330 | 12 ft | 0 kts | 70° |
| 2026-05-05 16:53 | 18.43968 | -66.01232 | 12 ft | 42 kts | 73° |
| 2026-05-05 16:53 | 18.44161 | -66.00814 | 84 ft | 75 kts | 72° |
| 2026-05-05 16:54 | 18.44354 | -66.00414 | 436 ft | 50 kts | 37° |